Data for 04/05/2016

Time Sea-Level Adjusted Pressure Absolute Pressure Temperature Relative Humidity Dew Point   
(mb) (inHg) (mb) (inHg) (C) (F) (%) (C) (F)
00:05 1020 30.12 849 25.07 0.9 33.6 69 -4.2 24.4
00:10 1020 30.12 849 25.07 0.7 33.3 67 -4.8 23.4
00:15 1020 30.12 849 25.07 0.7 33.2 66 -5 23
00:20 1020 30.12 849 25.07 0.8 33.4 62 -5.6 21.9
00:25 1020 30.12 849 25.07 0.9 33.6 60 -6 21.3
00:30 1020 30.12 849 25.07 0.9 33.6 59 -6.2 20.9
00:35 1020 30.12 849 25.07 1 33.8 58 -6.3 20.6
00:40 1020 30.12 849 25.07 1 33.8 59 -6.2 20.9
00:45 1020 30.12 849 25.07 1 33.8 59 -6.2 20.8
00:50 1020 30.12 849 25.07 1 33.7 58 -6.4 20.5
00:55 1020 30.12 849 25.07 0.9 33.7 59 -6.3 20.7
01:00 1020 30.12 849 25.07 0.9 33.6 58 -6.4 20.5
01:05 1020 30.12 849 25.07 0.9 33.6 58 -6.5 20.3
01:10 1020 30.12 849 25.07 0.9 33.6 58 -6.5 20.3
01:15 1019 30.09 849 25.07 0.9 33.6 60 -6.1 21
01:20 1019 30.09 849 25.07 0.6 33.1 60 -6.3 20.6
01:25 1019 30.09 848 25.04 0.6 33.1 60 -6.3 20.6
01:30 1019 30.09 848 25.04 0.7 33.2 57 -6.8 19.7
01:35 1019 30.09 848 25.04 1.1 33.9 56 -6.9 19.7
01:40 1019 30.09 848 25.04 1.2 34.2 55 -6.9 19.6
01:45 1019 30.09 848 25.04 1.3 34.3 54 -6.9 19.5
01:50 1019 30.09 848 25.04 1.2 34.2 55 -6.8 19.8
01:55 1019 30.09 848 25.04 1.1 34 57 -6.5 20.2
02:00 1019 30.09 848 25.04 1 33.8 57 -6.7 20
02:05 1019 30.09 848 25.04 1.1 34 55 -7 19.5
02:10 1019 30.09 848 25.04 1.2 34.1 55 -6.8 19.7
02:15 1019 30.09 848 25.04 1.1 34 56 -6.7 20
02:20 1019 30.09 848 25.04 1 33.8 56 -6.9 19.6
02:25 1019 30.09 848 25.04 1.1 33.9 56 -6.8 19.7
02:30 1019 30.09 848 25.04 1 33.8 55 -6.9 19.5
02:35 1019 30.09 848 25.04 1 33.8 57 -6.6 20.2
02:40 1019 30.09 848 25.04 0.9 33.6 57 -6.6 20.2
02:45 1019 30.09 848 25.04 0.9 33.5 56 -6.8 19.7
02:50 1019 30.09 848 25.04 1 33.8 55 -7.1 19.2
02:55 1018 30.06 848 25.04 1.1 33.9 54 -7.3 18.9
03:00 1018 30.06 848 25.04 1 33.8 54 -7.2 19.1
03:05 1018 30.06 847 25.01 1 33.8 55 -6.9 19.5
03:10 1018 30.06 847 25.01 0.9 33.6 55 -7.3 18.9
03:15 1017 30.03 847 25.01 1 33.7 54 -7.3 18.9
03:20 1018 30.06 847 25.01 1.1 34 52 -7.6 18.2
03:25 1018 30.06 847 25.01 1.1 34 54 -7.2 19
03:30 1018 30.06 847 25.01 1 33.8 54 -7.4 18.7
03:35 1018 30.06 847 25.01 1 33.8 54 -7.4 18.7
03:40 1018 30.06 847 25.01 0.9 33.7 53 -7.5 18.4
03:45 1018 30.06 847 25.01 1 33.8 52 -7.7 18.1
03:50 1018 30.06 847 25.01 1 33.8 53 -7.7 18.2
03:55 1018 30.06 847 25.01 1 33.9 50 -8.2 17.2
04:00 1018 30.06 848 25.04 1.1 34 50 -8.1 17.4
04:05 1018 30.06 847 25.01 1.1 33.9 50 -8.3 17.1
04:10 1018 30.06 847 25.01 1 33.9 50 -8.3 17.1
04:15 1018 30.06 848 25.04 1 33.9 50 -8.3 17.1
04:20 1018 30.06 848 25.04 1 33.9 50 -8.3 17
04:25 1018 30.06 848 25.04 1.1 33.9 48 -8.7 16.4
04:30 1018 30.06 848 25.04 1.2 34.2 49 -8.2 17.2
04:35 1018 30.06 848 25.04 1.2 34.1 48 -8.6 16.6
04:40 1018 30.06 848 25.04 1.2 34.2 48 -8.5 16.7
04:45 1018 30.06 848 25.04 1.3 34.3 47 -8.8 16.2
04:50 1019 30.09 848 25.04 1.3 34.3 48 -8.4 16.9
04:55 1019 30.09 848 25.04 1.2 34.2 49 -8.3 17
05:00 1019 30.09 848 25.04 1.2 34.1 49 -8.4 17
05:05 1019 30.09 848 25.04 1.2 34.2 48 -8.6 16.5
05:10 1019 30.09 848 25.04 1.3 34.3 48 -8.5 16.8
05:15 1019 30.09 848 25.04 1.3 34.3 49 -8.4 16.9
05:20 1019 30.09 848 25.04 1.3 34.3 47 -8.7 16.3
05:25 1019 30.09 848 25.04 1.4 34.5 47 -8.7 16.4
05:30 1019 30.09 848 25.04 1.4 34.6 48 -8.3 17
05:35 1019 30.09 848 25.04 1.3 34.4 47 -8.6 16.4
05:40 1019 30.09 848 25.04 1.4 34.5 47 -8.7 16.3
05:45 1019 30.09 848 25.04 1.5 34.7 48 -8.3 17
05:50 1019 30.09 848 25.04 1.4 34.5 49 -8.3 17.1
05:55 1019 30.09 848 25.04 1.5 34.6 47 -8.8 16.1
06:00 1019 30.09 848 25.04 1.5 34.8 47 -8.7 16.3
06:05 1019 30.09 848 25.04 1.5 34.8 47 -8.6 16.5
06:10 1019 30.09 849 25.07 1.6 34.8 46 -8.9 16
06:15 1019 30.09 849 25.07 1.7 35.1 46 -8.8 16.1
06:20 1019 30.09 849 25.07 1.7 35.1 48 -8.2 17.2
06:25 1020 30.12 849 25.07 1.6 34.9 48 -8.3 17
06:30 1020 30.12 849 25.07 1.5 34.8 49 -8 17.6
06:35 1020 30.12 849 25.07 1.5 34.7 48 -8.4 16.9
06:40 1020 30.12 849 25.07 1.5 34.8 49 -8 17.6
06:45 1020 30.12 849 25.07 1.5 34.7 49 -8.1 17.3
06:50 1020 30.12 849 25.07 1.6 34.9 50 -7.7 18.1
06:55 1020 30.12 849 25.07 1.6 34.9 48 -8.3 17.1
07:00 1020 30.12 849 25.07 1.7 35.1 47 -8.5 16.8
07:05 1020 30.12 849 25.07 1.9 35.3 44 -9.2 15.5
07:10 1020 30.12 850 25.1 2.1 35.7 43 -9.2 15.4
07:15 1021 30.15 850 25.1 2.1 35.9 44 -9 15.9
07:20 1021 30.15 850 25.1 2.1 35.8 45 -8.7 16.3
07:25 1021 30.15 850 25.1 2.1 35.8 46 -8.2 17.2
07:30 1021 30.15 850 25.1 2.1 35.7 46 -8.4 16.8
07:35 1021 30.15 850 25.1 2.1 35.8 45 -8.6 16.5
07:40 1021 30.15 850 25.1 2.2 35.9 43 -9.2 15.4
07:45 1021 30.15 851 25.13 2.2 36 45 -8.7 16.4
07:50 1022 30.18 851 25.13 2.1 35.7 47 -8.2 17.3
07:55 1022 30.18 851 25.13 1.9 35.5 47 -8.2 17.3
08:00 1022 30.18 851 25.13 2 35.6 46 -8.4 16.9
08:05 1022 30.18 851 25.13 2 35.7 48 -8 17.6
08:10 1022 30.18 851 25.13 1.9 35.5 49 -7.6 18.3
08:15 1022 30.18 851 25.13 1.8 35.3 51 -7.3 18.9
08:20 1022 30.18 851 25.13 1.8 35.2 52 -7 19.4
08:25 1022 30.18 851 25.13 1.6 34.9 53 -7 19.4
08:30 1022 30.18 851 25.13 1.5 34.7 55 -6.6 20.1
08:35 1022 30.18 852 25.16 1.5 34.7 57 -6 21.1
08:40 1023 30.21 852 25.16 1.3 34.4 59 -5.8 21.5
08:45 1023 30.21 852 25.16 1.3 34.4 60 -5.6 22
08:50 1023 30.21 852 25.16 1.2 34.2 62 -5.2 22.7
08:55 1023 30.21 852 25.16 0.8 33.5 70 -4.1 24.7
09:00 1023 30.21 852 25.16 0.5 32.9 73 -3.8 25.2
09:05 1023 30.21 852 25.16 0.2 32.4 76 -3.6 25.5
09:10 1023 30.21 852 25.16 0.1 32.2 77 -3.4 25.9
09:15 1023 30.21 853 25.19 0.1 32.2 76 -3.6 25.5
09:20 1023 30.21 853 25.19 0.2 32.3 78 -3.3 26.1
09:25 1024 30.24 853 25.19 -0.1 31.8 81 -2.9 26.7
09:30 1024 30.24 853 25.19 -0.4 31.4 84 -2.8 26.9
09:35 1024 30.24 853 25.19 -0.3 31.4 82 -3 26.6
09:40 1024 30.24 853 25.19 -0.3 31.4 83 -2.9 26.7
09:45 1024 30.24 853 25.19 -0.4 31.4 83 -2.8 26.9
09:50 1024 30.24 853 25.19 -0.2 31.7 81 -3 26.6
09:55 1024 30.24 853 25.19 0 32 80 -3.1 26.4
10:00 1024 30.24 853 25.19 0.1 32.2 79 -3.1 26.5
10:05 1024 30.24 853 25.19 0.3 32.5 78 -3.1 26.4
10:10 1024 30.24 853 25.19 0.5 33 72 -4 24.9
10:15 1024 30.24 853 25.19 0.9 33.6 65 -4.9 23.2
10:20 1024 30.24 853 25.19 1.4 34.5 63 -4.9 23.2
10:25 1024 30.24 853 25.19 1.8 35.2 70 -3 26.6
10:30 1024 30.24 853 25.19 1.1 34 75 -2.9 26.7
10:35 1024 30.24 853 25.19 0.7 33.2 76 -3 26.6
10:40 1024 30.24 853 25.19 0.5 33 77 -3.1 26.4
10:45 1024 30.24 853 25.19 0.9 33.5 75 -3.1 26.5
10:50 1024 30.24 853 25.19 0.8 33.5 73 -3.4 25.9
10:55 1024 30.24 853 25.19 1.3 34.3 66 -4.4 24.1
11:00 1024 30.24 853 25.19 1.8 35.2 65 -4.1 24.6
11:05 1024 30.24 853 25.19 2 35.7 64 -4.1 24.6
11:10 1024 30.24 853 25.19 2.5 36.4 57 -5.2 22.7
11:15 1024 30.24 853 25.19 3.1 37.7 49 -6.5 20.3
11:20 1024 30.24 853 25.19 3.5 38.3 48 -6.6 20.1
11:25 1024 30.24 853 25.19 3.6 38.5 46 -7.1 19.3
11:30 1024 30.24 853 25.19 3.8 38.8 45 -7.2 19.1
11:35 1024 30.24 853 25.19 3.9 39.1 45 -7.1 19.3
11:40 1024 30.24 853 25.19 4 39.3 44 -7.3 18.9
11:45 1024 30.24 853 25.19 4.2 39.5 43 -7.4 18.6
11:50 1024 30.24 853 25.19 4.3 39.7 42 -7.6 18.4
11:55 1024 30.24 853 25.19 4.5 40 42 -7.4 18.7
12:00 1024 30.24 853 25.19 4.6 40.3 40 -7.8 18
12:05 1024 30.24 853 25.19 4.8 40.7 38 -8.4 16.9
12:10 1024 30.24 853 25.19 5.6 42.1 36 -8.2 17.2
12:15 1024 30.24 853 25.19 5.9 42.7 39 -7.1 19.2
12:20 1024 30.24 853 25.19 6.2 43.2 36 -7.8 18
12:25 1024 30.24 853 25.19 6.5 43.7 36 -7.4 18.8
12:30 1024 30.24 853 25.19 6.9 44.5 34 -7.9 17.8
12:35 1024 30.24 853 25.19 7 44.6 35 -7.6 18.3
12:40 1024 30.24 853 25.19 7.4 45.3 33 -7.9 17.8
12:45 1024 30.24 853 25.19 7.3 45.1 34 -7.6 18.2
12:50 1024 30.24 853 25.19 7.5 45.6 31 -8.5 16.6
12:55 1024 30.24 853 25.19 6.6 44 33 -8.7 16.4
13:00 1024 30.24 853 25.19 6.5 43.6 33 -8.6 16.5
13:05 1024 30.24 853 25.19 6.4 43.4 32 -9.1 15.7
13:10 1024 30.24 853 25.19 6.2 43.1 32 -9.2 15.4
13:15 1024 30.24 853 25.19 6.2 43.2 33 -9 15.8
13:20 1024 30.24 853 25.19 6.2 43.2 33 -8.9 15.9
13:25 1024 30.24 853 25.19 6.5 43.7 33 -8.8 16.2
13:30 1024 30.24 853 25.19 6.6 43.9 32 -9 15.9
13:35 1024 30.24 853 25.19 6.6 43.9 33 -8.6 16.5
13:40 1024 30.24 853 25.19 6.7 44 32 -8.9 16
13:45 1024 30.24 853 25.19 6.8 44.3 32 -8.7 16.3
13:50 1024 30.24 853 25.19 7 44.7 31 -9.1 15.7
13:55 1024 30.24 853 25.19 7 44.6 32 -8.7 16.3
14:00 1024 30.24 853 25.19 7.2 45 31 -8.9 16
14:05 1024 30.24 853 25.19 7.3 45.2 30 -9.1 15.6
14:10 1024 30.24 853 25.19 8.1 46.6 29 -9 15.7
14:15 1024 30.24 853 25.19 8.6 47.5 27 -9.3 15.3
14:20 1024 30.24 853 25.19 9.1 48.4 27 -9.1 15.7
14:25 1024 30.24 853 25.19 9 48.2 27 -9 15.9
14:30 1024 30.24 853 25.19 9 48.1 26 -9.7 14.6
14:35 1024 30.24 853 25.19 9 48.2 26 -9.6 14.6
14:40 1024 30.24 853 25.19 9 48.1 26 -9.5 15
14:45 1024 30.24 853 25.19 9.2 48.5 25 -9.8 14.3
14:50 1024 30.24 853 25.19 9.4 48.9 26 -9.2 15.4
14:55 1024 30.24 853 25.19 9.5 49.2 25 -9.6 14.7
15:00 1024 30.24 853 25.19 9.4 49 25 -9.8 14.3
15:05 1024 30.24 853 25.19 9.6 49.3 25 -9.7 14.6
15:10 1024 30.24 853 25.19 9.7 49.4 24 -9.8 14.4
15:15 1024 30.24 853 25.19 9.6 49.2 25 -9.6 14.8
15:20 1024 30.24 853 25.19 9.4 48.9 26 -9.1 15.6
15:25 1024 30.24 853 25.19 9.6 49.4 25 -9.5 14.9
15:30 1024 30.24 853 25.19 10 50.1 26 -8.8 16.1
15:35 1024 30.24 853 25.19 9.8 49.6 26 -8.6 16.6
15:40 1024 30.24 853 25.19 9.6 49.3 26 -9.1 15.6
15:45 1024 30.24 853 25.19 9.8 49.6 26 -8.7 16.3
15:50 1024 30.24 853 25.19 9.9 49.9 25 -9 15.8
15:55 1024 30.24 853 25.19 9.9 49.9 26 -8.8 16.2
16:00 1024 30.24 853 25.19 9.6 49.2 26 -9 15.9
16:05 1024 30.24 853 25.19 9.2 48.5 26 -9.2 15.4
16:10 1024 30.24 853 25.19 9.1 48.4 26 -9.4 15
16:15 1024 30.24 853 25.19 9.2 48.5 26 -9.5 14.9
16:20 1024 30.24 853 25.19 9.2 48.6 27 -8.9 16
16:25 1024 30.24 853 25.19 9.3 48.7 27 -8.7 16.3
16:30 1024 30.24 853 25.19 9.2 48.6 27 -8.8 16.1
16:35 1024 30.24 853 25.19 9.4 48.9 26 -9 15.8
16:40 1024 30.24 853 25.19 9.6 49.3 26 -9.2 15.5
16:45 1024 30.24 853 25.19 9.6 49.3 26 -9 15.8
16:50 1024 30.24 853 25.19 9.3 48.8 27 -8.7 16.3
16:55 1024 30.24 853 25.19 9.2 48.5 27 -8.8 16.2
17:00 1024 30.24 853 25.19 9.4 48.9 27 -8.9 16
17:05 1024 30.24 853 25.19 9.4 48.9 27 -8.8 16.2
17:10 1024 30.24 853 25.19 9.5 49.1 26 -8.9 16
17:15 1024 30.24 854 25.22 9.6 49.2 26 -8.8 16.2
17:20 1024 30.24 854 25.22 9.2 48.6 26 -9.3 15.3
17:25 1024 30.24 854 25.22 8.8 47.9 26 -9.8 14.4
17:30 1024 30.24 854 25.22 8.6 47.5 26 -10 14
17:35 1024 30.24 854 25.22 8.4 47.2 26 -10.2 13.6
17:40 1024 30.24 853 25.19 8.1 46.6 26 -10.2 13.6
17:45 1024 30.24 854 25.22 8 46.4 26 -10.2 13.6
17:50 1024 30.24 854 25.22 7.9 46.3 27 -10.1 13.9
17:55 1024 30.24 854 25.22 7.9 46.2 27 -9.9 14.3
18:00 1024 30.24 854 25.22 7.9 46.1 28 -9.5 14.8
18:05 1025 30.27 854 25.22 7.8 46.1 29 -9.2 15.4
18:10 1025 30.27 854 25.22 7.6 45.6 30 -9.1 15.6
18:15 1025 30.27 854 25.22 7.4 45.3 30 -9.1 15.6
18:20 1025 30.27 854 25.22 7.3 45.1 31 -8.9 15.9
18:25 1025 30.27 854 25.22 7.1 44.8 31 -9 15.8
18:30 1025 30.27 854 25.22 6.9 44.5 31 -9 15.8
18:35 1025 30.27 854 25.22 6.8 44.3 32 -8.9 16
18:40 1025 30.27 854 25.22 6.7 44 32 -9 15.8
18:45 1025 30.27 854 25.22 6.5 43.7 32 -9 15.8
18:50 1025 30.27 854 25.22 6.4 43.5 33 -8.9 15.9
18:55 1025 30.27 854 25.22 6.3 43.3 33 -9 15.8
19:00 1025 30.27 854 25.22 6.1 43 33 -8.9 16
19:05 1025 30.27 854 25.22 6 42.8 34 -8.7 16.3
19:10 1025 30.27 854 25.22 5.8 42.4 35 -8.4 16.8
19:15 1025 30.27 854 25.22 5.6 42.1 36 -8.3 17.1
19:20 1025 30.27 854 25.22 5.4 41.8 36 -8.7 16.4
19:25 1025 30.27 854 25.22 5.4 41.8 34 -9.3 15.2
19:30 1025 30.27 854 25.22 5.5 41.9 33 -9.4 15.1
19:35 1025 30.27 854 25.22 5.5 41.9 33 -9.4 15
19:40 1025 30.27 854 25.22 5.4 41.7 34 -9.2 15.5
19:45 1025 30.27 854 25.22 5.2 41.4 35 -8.9 15.9
19:50 1025 30.27 854 25.22 5 41.1 36 -9 15.8
19:55 1025 30.27 854 25.22 4.9 40.8 35 -9.2 15.5
20:00 1025 30.27 854 25.22 4.9 40.9 35 -9.2 15.5
20:05 1025 30.27 854 25.22 4.8 40.7 36 -9 15.9
20:10 1025 30.27 854 25.22 4.6 40.3 37 -8.8 16.2
20:15 1025 30.27 855 25.25 4.4 40 38 -8.6 16.5
20:20 1025 30.27 855 25.25 4.2 39.6 39 -8.6 16.5
20:25 1026 30.3 855 25.25 4.2 39.6 38 -8.8 16.1
20:30 1025 30.27 855 25.25 4.3 39.7 37 -9.1 15.7
20:35 1025 30.27 855 25.25 4.3 39.8 37 -9 15.8
20:40 1025 30.27 855 25.25 4.3 39.7 38 -8.9 15.9
20:45 1025 30.27 854 25.22 4.2 39.5 38 -8.8 16.1
20:50 1025 30.27 855 25.25 4 39.2 41 -8.1 17.3
20:55 1025 30.27 855 25.25 3.3 37.9 44 -7.9 17.8
21:00 1026 30.3 855 25.25 2.9 37.2 45 -8 17.5
21:05 1026 30.3 855 25.25 2.8 37 45 -8.1 17.4
21:10 1026 30.3 855 25.25 2.8 37.1 44 -8.4 17
21:15 1026 30.3 855 25.25 2.9 37.3 44 -8.3 17.1
21:20 1026 30.3 855 25.25 3 37.4 43 -8.4 16.9
21:25 1026 30.3 855 25.25 3.1 37.5 43 -8.3 17
21:30 1026 30.3 855 25.25 3.1 37.6 43 -8.4 16.8
21:35 1026 30.3 855 25.25 3.1 37.6 42 -8.5 16.8
21:40 1026 30.3 855 25.25 3.1 37.7 42 -8.5 16.7
21:45 1026 30.3 855 25.25 3.2 37.8 42 -8.5 16.7
21:50 1026 30.3 855 25.25 3.2 37.7 42 -8.4 16.9
21:55 1026 30.3 856 25.28 3.1 37.6 44 -8.1 17.5
22:00 1026 30.3 856 25.28 2.9 37.3 45 -7.9 17.7
22:05 1026 30.3 856 25.28 2.9 37.2 46 -7.8 18
22:10 1026 30.3 856 25.28 2.9 37.3 45 -7.9 17.8
22:15 1026 30.3 855 25.25 3 37.4 44 -7.9 17.7
22:20 1026 30.3 855 25.25 3.1 37.6 43 -8.1 17.4
22:25 1026 30.3 855 25.25 3.3 37.9 42 -8.3 17
22:30 1026 30.3 855 25.25 3.3 38 41 -8.6 16.5
22:35 1026 30.3 855 25.25 3.3 37.9 43 -8 17.6
22:40 1026 30.3 855 25.25 3.1 37.5 43 -8.3 17
22:45 1026 30.3 855 25.25 3.1 37.5 43 -8.4 16.9
22:50 1026 30.3 855 25.25 3 37.5 43 -8.4 16.9
22:55 1026 30.3 856 25.28 3 37.4 43 -8.3 17.1
23:00 1026 30.3 856 25.28 3 37.4 43 -8.3 17
23:05 1027 30.33 856 25.28 2.7 36.9 45 -7.9 17.8
23:10 1027 30.33 856 25.28 2.6 36.7 46 -7.8 17.9
23:15 1027 30.33 856 25.28 2.7 36.9 46 -7.8 17.9
23:20 1027 30.33 856 25.28 2.7 36.9 47 -7.6 18.4
23:25 1027 30.33 856 25.28 2.6 36.7 47 -7.5 18.6
23:30 1027 30.33 856 25.28 2.6 36.6 47 -7.6 18.3
23:35 1027 30.33 856 25.28 2.7 36.8 46 -7.8 18
23:40 1026 30.3 856 25.28 2.7 36.9 47 -7.6 18.3
23:45 1026 30.3 856 25.28 2.6 36.6 49 -7.1 19.2
23:50 1026 30.3 856 25.28 2.4 36.4 49 -7.1 19.2
23:55 1026 30.3 856 25.28 2.4 36.3 49 -7.2 19
24:00 1026 30.3 855 25.25 2.3 36.2 52 -6.6 20.1